Low Isles, Australia
Current Conditions -  °F | °C
As of 7:00 AM on Sunday 26 Oct 2014 (Local Time) from YBCS Reporting Station
Few Clouds Few Clouds  
Wind Chill: 73°   Ceiling: Unl
Heat Index: 73°   Visibility: 6mi
Dew Point: 61°   Wind: 9mph
Humidity: 65%   Direction: 150°SSE
Pressure: 30"   Gusts: NA
Location:  16.39°S, 145.57°E
Report Text: YBCS 252100Z 15008KT 9999 FEW026 23/16 Q1016
Loading
Personal Weather Stations






























Interactive Weather Map
Tropical Storm Tracking
New forecast layout! Learn more

10-Day Weather Forecast

Advertisements
Track Severe Weather on mobile